sensor_id;sensor_type;location;lat;lon;timestamp;temperature;humidity
6110;DHT22;3085;49.444;11.054;2023-12-07T00:01:49;3.00;99.90
6110;DHT22;3085;49.444;11.054;2023-12-07T00:04:17;3.00;99.90
6110;DHT22;3085;49.444;11.054;2023-12-07T00:06:45;3.00;99.90
6110;DHT22;3085;49.444;11.054;2023-12-07T00:09:12;3.00;99.90
6110;DHT22;3085;49.444;11.054;2023-12-07T00:11:38;3.10;99.90
6110;DHT22;3085;49.444;11.054;2023-12-07T00:14:05;3.10;99.90
6110;DHT22;3085;49.444;11.054;2023-12-07T00:16:32;3.00;99.90
6110;DHT22;3085;49.444;11.054;2023-12-07T00:18:58;3.10;99.90
6110;DHT22;3085;49.444;11.054;2023-12-07T00:21:25;3.20;99.90
6110;DHT22;3085;49.444;11.054;2023-12-07T00:23:53;3.30;99.90
6110;DHT22;3085;49.444;11.054;2023-12-07T00:26:20;3.30;99.90
6110;DHT22;3085;49.444;11.054;2023-12-07T00:28:46;3.30;99.90
6110;DHT22;3085;49.444;11.054;2023-12-07T00:31:13;3.30;99.90
6110;DHT22;3085;49.444;11.054;2023-12-07T00:33:40;3.30;99.90
6110;DHT22;3085;49.444;11.054;2023-12-07T00:36:08;3.40;99.90
6110;DHT22;3085;49.444;11.054;2023-12-07T00:38:35;3.40;99.90
6110;DHT22;3085;49.444;11.054;2023-12-07T00:41:03;3.30;99.90
6110;DHT22;3085;49.444;11.054;2023-12-07T00:43:30;3.20;99.90
6110;DHT22;3085;49.444;11.054;2023-12-07T00:45:57;3.40;99.90
6110;DHT22;3085;49.444;11.054;2023-12-07T00:48:24;3.20;99.90
6110;DHT22;3085;49.444;11.054;2023-12-07T00:50:50;3.20;99.90
6110;DHT22;3085;49.444;11.054;2023-12-07T00:53:17;3.10;99.90
6110;DHT22;3085;49.444;11.054;2023-12-07T00:55:44;3.00;99.90
6110;DHT22;3085;49.444;11.054;2023-12-07T00:58:11;3.00;99.90
6110;DHT22;3085;49.444;11.054;2023-12-07T01:00:39;3.00;99.90
6110;DHT22;3085;49.444;11.054;2023-12-07T01:03:05;3.00;99.90
6110;DHT22;3085;49.444;11.054;2023-12-07T01:05:32;2.90;99.90
6110;DHT22;3085;49.444;11.054;2023-12-07T01:07:59;3.10;99.90
6110;DHT22;3085;49.444;11.054;2023-12-07T01:10:25;2.90;99.90
6110;DHT22;3085;49.444;11.054;2023-12-07T01:12:52;3.00;99.90
6110;DHT22;3085;49.444;11.054;2023-12-07T01:15:20;2.90;99.90
6110;DHT22;3085;49.444;11.054;2023-12-07T01:17:47;3.00;99.90
6110;DHT22;3085;49.444;11.054;2023-12-07T01:20:13;3.00;99.90
6110;DHT22;3085;49.444;11.054;2023-12-07T01:22:42;3.00;99.90
6110;DHT22;3085;49.444;11.054;2023-12-07T01:25:11;3.00;99.90
6110;DHT22;3085;49.444;11.054;2023-12-07T01:27:39;3.00;99.90
6110;DHT22;3085;49.444;11.054;2023-12-07T01:30:06;3.10;99.90
6110;DHT22;3085;49.444;11.054;2023-12-07T01:32:34;3.10;99.90
6110;DHT22;3085;49.444;11.054;2023-12-07T01:35:01;3.00;99.90
6110;DHT22;3085;49.444;11.054;2023-12-07T01:37:28;3.10;99.90
6110;DHT22;3085;49.444;11.054;2023-12-07T01:39:56;3.10;99.90
6110;DHT22;3085;49.444;11.054;2023-12-07T01:42:22;3.10;99.90
6110;DHT22;3085;49.444;11.054;2023-12-07T01:44:49;3.10;99.90
6110;DHT22;3085;49.444;11.054;2023-12-07T01:47:15;3.10;99.90
6110;DHT22;3085;49.444;11.054;2023-12-07T01:49:44;3.10;99.90
6110;DHT22;3085;49.444;11.054;2023-12-07T01:52:10;3.00;99.90
6110;DHT22;3085;49.444;11.054;2023-12-07T01:54:38;3.10;99.90
6110;DHT22;3085;49.444;11.054;2023-12-07T01:57:05;3.10;99.90
6110;DHT22;3085;49.444;11.054;2023-12-07T01:59:32;3.10;99.90
6110;DHT22;3085;49.444;11.054;2023-12-07T02:01:59;3.00;99.90
6110;DHT22;3085;49.444;11.054;2023-12-07T02:04:26;3.00;99.90
6110;DHT22;3085;49.444;11.054;2023-12-07T02:06:57;3.00;99.90
6110;DHT22;3085;49.444;11.054;2023-12-07T02:09:23;3.00;99.90
6110;DHT22;3085;49.444;11.054;2023-12-07T02:11:50;3.00;99.90
6110;DHT22;3085;49.444;11.054;2023-12-07T02:14:17;3.00;99.90
6110;DHT22;3085;49.444;11.054;2023-12-07T02:16:48;2.90;99.90
6110;DHT22;3085;49.444;11.054;2023-12-07T02:19:26;2.90;99.90
6110;DHT22;3085;49.444;11.054;2023-12-07T02:21:59;2.90;99.90
6110;DHT22;3085;49.444;11.054;2023-12-07T02:24:33;2.80;99.90
6110;DHT22;3085;49.444;11.054;2023-12-07T02:27:01;2.80;99.90
6110;DHT22;3085;49.444;11.054;2023-12-07T02:29:28;2.90;99.90
6110;DHT22;3085;49.444;11.054;2023-12-07T02:31:54;2.90;99.90
6110;DHT22;3085;49.444;11.054;2023-12-07T02:34:21;2.90;99.90
6110;DHT22;3085;49.444;11.054;2023-12-07T02:36:48;3.00;99.90
6110;DHT22;3085;49.444;11.054;2023-12-07T02:39:16;3.20;99.90
6110;DHT22;3085;49.444;11.054;2023-12-07T02:41:44;3.00;99.90
6110;DHT22;3085;49.444;11.054;2023-12-07T02:44:13;3.10;99.90
6110;DHT22;3085;49.444;11.054;2023-12-07T02:46:40;3.00;99.90
6110;DHT22;3085;49.444;11.054;2023-12-07T02:49:07;3.50;99.90
6110;DHT22;3085;49.444;11.054;2023-12-07T02:51:33;3.00;99.90
6110;DHT22;3085;49.444;11.054;2023-12-07T02:54:00;3.00;99.90
6110;DHT22;3085;49.444;11.054;2023-12-07T02:56:27;2.90;99.90
6110;DHT22;3085;49.444;11.054;2023-12-07T02:58:53;3.00;99.90
6110;DHT22;3085;49.444;11.054;2023-12-07T03:01:21;3.00;99.90
6110;DHT22;3085;49.444;11.054;2023-12-07T03:03:48;3.00;99.90
6110;DHT22;3085;49.444;11.054;2023-12-07T03:06:14;3.00;99.90
6110;DHT22;3085;49.444;11.054;2023-12-07T03:08:42;2.90;99.90
6110;DHT22;3085;49.444;11.054;2023-12-07T03:11:09;2.90;99.90
6110;DHT22;3085;49.444;11.054;2023-12-07T03:13:35;3.00;99.90
6110;DHT22;3085;49.444;11.054;2023-12-07T03:16:07;2.90;99.90
6110;DHT22;3085;49.444;11.054;2023-12-07T03:18:36;2.90;99.90
6110;DHT22;3085;49.444;11.054;2023-12-07T03:21:03;2.90;99.90
6110;DHT22;3085;49.444;11.054;2023-12-07T03:23:29;2.90;99.90
6110;DHT22;3085;49.444;11.054;2023-12-07T03:25:56;2.90;99.90
6110;DHT22;3085;49.444;11.054;2023-12-07T03:28:22;2.90;99.90
6110;DHT22;3085;49.444;11.054;2023-12-07T03:30:49;2.80;99.90
6110;DHT22;3085;49.444;11.054;2023-12-07T03:33:16;2.80;99.90
6110;DHT22;3085;49.444;11.054;2023-12-07T03:35:44;2.80;99.90
6110;DHT22;3085;49.444;11.054;2023-12-07T03:38:11;2.80;99.90
6110;DHT22;3085;49.444;11.054;2023-12-07T03:40:38;2.70;99.90
6110;DHT22;3085;49.444;11.054;2023-12-07T03:43:05;2.80;99.90
6110;DHT22;3085;49.444;11.054;2023-12-07T03:45:35;2.80;99.90
6110;DHT22;3085;49.444;11.054;2023-12-07T03:48:02;2.90;99.90
6110;DHT22;3085;49.444;11.054;2023-12-07T03:50:29;2.80;99.90
6110;DHT22;3085;49.444;11.054;2023-12-07T03:52:57;2.70;99.90
6110;DHT22;3085;49.444;11.054;2023-12-07T03:55:24;2.90;99.90
6110;DHT22;3085;49.444;11.054;2023-12-07T03:57:50;2.90;99.90
6110;DHT22;3085;49.444;11.054;2023-12-07T04:00:17;2.90;99.90
6110;DHT22;3085;49.444;11.054;2023-12-07T04:02:44;2.80;99.90
6110;DHT22;3085;49.444;11.054;2023-12-07T04:05:11;2.90;99.90
6110;DHT22;3085;49.444;11.054;2023-12-07T04:07:38;2.90;99.90
6110;DHT22;3085;49.444;11.054;2023-12-07T04:10:07;3.00;99.90
6110;DHT22;3085;49.444;11.054;2023-12-07T04:12:34;3.00;99.90
6110;DHT22;3085;49.444;11.054;2023-12-07T04:15:01;2.90;99.90
6110;DHT22;3085;49.444;11.054;2023-12-07T04:17:30;2.80;99.90
6110;DHT22;3085;49.444;11.054;2023-12-07T04:19:57;2.80;99.90
6110;DHT22;3085;49.444;11.054;2023-12-07T04:22:23;3.00;99.90
6110;DHT22;3085;49.444;11.054;2023-12-07T04:24:50;2.90;99.90
6110;DHT22;3085;49.444;11.054;2023-12-07T04:27:18;2.90;99.90
6110;DHT22;3085;49.444;11.054;2023-12-07T04:29:45;3.00;99.90
6110;DHT22;3085;49.444;11.054;2023-12-07T04:32:12;3.00;99.90
6110;DHT22;3085;49.444;11.054;2023-12-07T04:34:39;3.10;99.90
6110;DHT22;3085;49.444;11.054;2023-12-07T04:37:05;3.10;99.90
6110;DHT22;3085;49.444;11.054;2023-12-07T04:39:32;3.10;99.90
6110;DHT22;3085;49.444;11.054;2023-12-07T04:42:00;3.20;99.90
6110;DHT22;3085;49.444;11.054;2023-12-07T04:44:28;3.20;99.90
6110;DHT22;3085;49.444;11.054;2023-12-07T04:46:55;3.10;99.90
6110;DHT22;3085;49.444;11.054;2023-12-07T04:49:22;3.70;99.90
6110;DHT22;3085;49.444;11.054;2023-12-07T04:51:51;3.20;99.90
6110;DHT22;3085;49.444;11.054;2023-12-07T04:54:17;3.10;99.90
6110;DHT22;3085;49.444;11.054;2023-12-07T04:56:44;3.10;99.90
6110;DHT22;3085;49.444;11.054;2023-12-07T04:59:11;3.10;99.90
6110;DHT22;3085;49.444;11.054;2023-12-07T05:01:39;3.10;99.90
6110;DHT22;3085;49.444;11.054;2023-12-07T05:04:06;3.20;99.90
6110;DHT22;3085;49.444;11.054;2023-12-07T05:06:35;3.20;99.90
6110;DHT22;3085;49.444;11.054;2023-12-07T05:09:02;3.20;99.90
6110;DHT22;3085;49.444;11.054;2023-12-07T05:11:29;3.20;99.90
6110;DHT22;3085;49.444;11.054;2023-12-07T05:13:56;3.50;99.90
6110;DHT22;3085;49.444;11.054;2023-12-07T05:16:23;3.20;99.90
6110;DHT22;3085;49.444;11.054;2023-12-07T05:18:51;3.20;99.90
6110;DHT22;3085;49.444;11.054;2023-12-07T05:21:18;4.00;99.90
6110;DHT22;3085;49.444;11.054;2023-12-07T05:23:45;3.20;99.90
6110;DHT22;3085;49.444;11.054;2023-12-07T05:26:12;3.10;99.90
6110;DHT22;3085;49.444;11.054;2023-12-07T05:28:40;3.20;99.90
6110;DHT22;3085;49.444;11.054;2023-12-07T05:31:15;3.20;99.90
6110;DHT22;3085;49.444;11.054;2023-12-07T05:33:42;3.20;99.90
6110;DHT22;3085;49.444;11.054;2023-12-07T05:36:12;3.10;99.90
6110;DHT22;3085;49.444;11.054;2023-12-07T05:38:39;3.10;99.90
6110;DHT22;3085;49.444;11.054;2023-12-07T05:41:09;3.10;99.90
6110;DHT22;3085;49.444;11.054;2023-12-07T05:43:40;2.00;99.90
6110;DHT22;3085;49.444;11.054;2023-12-07T05:46:07;3.40;99.90
6110;DHT22;3085;49.444;11.054;2023-12-07T05:48:34;3.10;99.90
6110;DHT22;3085;49.444;11.054;2023-12-07T05:51:01;3.00;99.90
6110;DHT22;3085;49.444;11.054;2023-12-07T05:53:30;3.10;99.90
6110;DHT22;3085;49.444;11.054;2023-12-07T05:55:58;3.00;99.90
6110;DHT22;3085;49.444;11.054;2023-12-07T05:58:26;3.00;99.90
6110;DHT22;3085;49.444;11.054;2023-12-07T06:00:53;3.00;99.90
6110;DHT22;3085;49.444;11.054;2023-12-07T06:03:20;3.00;99.90
6110;DHT22;3085;49.444;11.054;2023-12-07T06:05:46;3.00;99.90
6110;DHT22;3085;49.444;11.054;2023-12-07T06:08:17;3.00;99.90
6110;DHT22;3085;49.444;11.054;2023-12-07T06:10:46;3.00;99.90
6110;DHT22;3085;49.444;11.054;2023-12-07T06:13:13;3.10;99.90
6110;DHT22;3085;49.444;11.054;2023-12-07T06:15:41;3.00;99.90
6110;DHT22;3085;49.444;11.054;2023-12-07T06:18:08;3.00;99.90
6110;DHT22;3085;49.444;11.054;2023-12-07T06:20:35;3.00;99.90
6110;DHT22;3085;49.444;11.054;2023-12-07T06:23:04;2.90;99.90
6110;DHT22;3085;49.444;11.054;2023-12-07T06:25:38;2.80;99.90
6110;DHT22;3085;49.444;11.054;2023-12-07T06:28:06;2.90;99.90
6110;DHT22;3085;49.444;11.054;2023-12-07T06:30:35;2.90;99.90
6110;DHT22;3085;49.444;11.054;2023-12-07T06:33:02;3.10;99.90
6110;DHT22;3085;49.444;11.054;2023-12-07T06:35:28;2.90;99.90
6110;DHT22;3085;49.444;11.054;2023-12-07T06:37:56;2.90;99.90
6110;DHT22;3085;49.444;11.054;2023-12-07T06:40:22;2.90;99.90
6110;DHT22;3085;49.444;11.054;2023-12-07T06:42:49;2.90;99.90
6110;DHT22;3085;49.444;11.054;2023-12-07T06:45:17;2.90;99.90
6110;DHT22;3085;49.444;11.054;2023-12-07T06:47:44;3.00;99.90
6110;DHT22;3085;49.444;11.054;2023-12-07T06:50:10;2.90;99.90
6110;DHT22;3085;49.444;11.054;2023-12-07T06:52:39;2.90;99.90
6110;DHT22;3085;49.444;11.054;2023-12-07T06:55:06;2.90;99.90
6110;DHT22;3085;49.444;11.054;2023-12-07T06:57:35;2.90;99.90
6110;DHT22;3085;49.444;11.054;2023-12-07T07:00:03;2.90;99.90
6110;DHT22;3085;49.444;11.054;2023-12-07T07:02:37;2.80;99.90
6110;DHT22;3085;49.444;11.054;2023-12-07T07:05:04;2.80;99.90
6110;DHT22;3085;49.444;11.054;2023-12-07T07:07:31;2.90;99.90
6110;DHT22;3085;49.444;11.054;2023-12-07T07:09:58;3.10;99.90
6110;DHT22;3085;49.444;11.054;2023-12-07T07:12:37;3.00;99.90
6110;DHT22;3085;49.444;11.054;2023-12-07T07:15:07;3.10;99.90
6110;DHT22;3085;49.444;11.054;2023-12-07T07:17:33;2.90;99.90
6110;DHT22;3085;49.444;11.054;2023-12-07T07:20:01;3.00;99.90
6110;DHT22;3085;49.444;11.054;2023-12-07T07:22:28;3.00;99.90
6110;DHT22;3085;49.444;11.054;2023-12-07T07:24:55;3.00;99.90
6110;DHT22;3085;49.444;11.054;2023-12-07T07:27:21;3.10;99.90
6110;DHT22;3085;49.444;11.054;2023-12-07T07:29:48;3.10;99.90
6110;DHT22;3085;49.444;11.054;2023-12-07T07:32:15;3.10;99.90
6110;DHT22;3085;49.444;11.054;2023-12-07T07:34:42;3.10;99.90
6110;DHT22;3085;49.444;11.054;2023-12-07T07:37:11;3.10;99.90
6110;DHT22;3085;49.444;11.054;2023-12-07T07:39:37;3.20;99.90
6110;DHT22;3085;49.444;11.054;2023-12-07T07:42:04;3.20;99.90
6110;DHT22;3085;49.444;11.054;2023-12-07T07:44:31;3.20;99.90
6110;DHT22;3085;49.444;11.054;2023-12-07T07:46:58;3.40;99.90
6110;DHT22;3085;49.444;11.054;2023-12-07T07:49:24;3.20;99.90
6110;DHT22;3085;49.444;11.054;2023-12-07T07:51:51;3.20;99.90
6110;DHT22;3085;49.444;11.054;2023-12-07T07:54:19;3.30;99.90
6110;DHT22;3085;49.444;11.054;2023-12-07T07:56:46;3.20;99.90
6110;DHT22;3085;49.444;11.054;2023-12-07T07:59:12;3.30;99.90
6110;DHT22;3085;49.444;11.054;2023-12-07T08:01:39;3.10;99.90
6110;DHT22;3085;49.444;11.054;2023-12-07T08:04:06;3.00;99.90
6110;DHT22;3085;49.444;11.054;2023-12-07T08:06:32;3.10;99.90
6110;DHT22;3085;49.444;11.054;2023-12-07T08:08:59;3.40;99.90
6110;DHT22;3085;49.444;11.054;2023-12-07T08:11:27;3.20;99.90
6110;DHT22;3085;49.444;11.054;2023-12-07T08:13:54;3.50;99.90
6110;DHT22;3085;49.444;11.054;2023-12-07T08:16:22;3.30;99.90
6110;DHT22;3085;49.444;11.054;2023-12-07T08:18:49;3.30;99.90
6110;DHT22;3085;49.444;11.054;2023-12-07T08:21:19;3.30;99.90
6110;DHT22;3085;49.444;11.054;2023-12-07T08:23:55;3.30;99.90
6110;DHT22;3085;49.444;11.054;2023-12-07T08:26:34;3.20;99.90
6110;DHT22;3085;49.444;11.054;2023-12-07T08:29:04;4.10;99.90
6110;DHT22;3085;49.444;11.054;2023-12-07T08:31:32;3.10;99.90
6110;DHT22;3085;49.444;11.054;2023-12-07T08:33:58;3.20;99.90
6110;DHT22;3085;49.444;11.054;2023-12-07T08:36:25;3.30;99.90
6110;DHT22;3085;49.444;11.054;2023-12-07T08:38:53;3.30;99.90
6110;DHT22;3085;49.444;11.054;2023-12-07T08:41:20;3.30;99.90
6110;DHT22;3085;49.444;11.054;2023-12-07T08:43:48;3.30;99.90
6110;DHT22;3085;49.444;11.054;2023-12-07T08:46:14;3.40;99.90
6110;DHT22;3085;49.444;11.054;2023-12-07T08:48:41;3.30;99.90
6110;DHT22;3085;49.444;11.054;2023-12-07T08:51:08;3.20;99.90
6110;DHT22;3085;49.444;11.054;2023-12-07T08:53:35;3.10;99.90
6110;DHT22;3085;49.444;11.054;2023-12-07T08:56:02;3.00;99.90
6110;DHT22;3085;49.444;11.054;2023-12-07T08:58:29;3.10;99.90
6110;DHT22;3085;49.444;11.054;2023-12-07T09:00:57;3.10;99.90
6110;DHT22;3085;49.444;11.054;2023-12-07T09:03:23;3.20;99.90
6110;DHT22;3085;49.444;11.054;2023-12-07T09:05:56;3.30;99.90
6110;DHT22;3085;49.444;11.054;2023-12-07T09:08:23;3.30;99.90
6110;DHT22;3085;49.444;11.054;2023-12-07T09:10:50;3.40;99.90
6110;DHT22;3085;49.444;11.054;2023-12-07T09:13:17;3.40;99.90
6110;DHT22;3085;49.444;11.054;2023-12-07T09:15:44;3.50;99.90
6110;DHT22;3085;49.444;11.054;2023-12-07T09:18:12;3.40;99.90
6110;DHT22;3085;49.444;11.054;2023-12-07T09:20:39;3.30;99.90
6110;DHT22;3085;49.444;11.054;2023-12-07T09:23:11;3.50;99.90
6110;DHT22;3085;49.444;11.054;2023-12-07T09:25:38;3.50;99.90
6110;DHT22;3085;49.444;11.054;2023-12-07T09:28:06;3.40;99.90
6110;DHT22;3085;49.444;11.054;2023-12-07T09:30:33;3.50;99.90
6110;DHT22;3085;49.444;11.054;2023-12-07T09:33:01;3.60;99.90
6110;DHT22;3085;49.444;11.054;2023-12-07T09:35:30;3.60;99.90
6110;DHT22;3085;49.444;11.054;2023-12-07T09:37:59;3.40;99.90
6110;DHT22;3085;49.444;11.054;2023-12-07T09:40:26;3.60;99.90
6110;DHT22;3085;49.444;11.054;2023-12-07T09:42:53;3.40;99.90
6110;DHT22;3085;49.444;11.054;2023-12-07T09:45:20;3.50;99.90
6110;DHT22;3085;49.444;11.054;2023-12-07T09:47:49;3.50;99.90
6110;DHT22;3085;49.444;11.054;2023-12-07T09:50:16;3.40;99.90
6110;DHT22;3085;49.444;11.054;2023-12-07T09:52:47;3.50;99.90
6110;DHT22;3085;49.444;11.054;2023-12-07T09:55:16;3.60;99.90
6110;DHT22;3085;49.444;11.054;2023-12-07T09:57:42;3.70;99.90
6110;DHT22;3085;49.444;11.054;2023-12-07T10:00:11;3.70;99.90
6110;DHT22;3085;49.444;11.054;2023-12-07T10:02:40;3.80;99.90
6110;DHT22;3085;49.444;11.054;2023-12-07T10:05:09;3.80;99.90
6110;DHT22;3085;49.444;11.054;2023-12-07T10:07:39;3.80;99.90
6110;DHT22;3085;49.444;11.054;2023-12-07T10:10:08;3.90;99.90
6110;DHT22;3085;49.444;11.054;2023-12-07T10:12:44;3.90;99.90
6110;DHT22;3085;49.444;11.054;2023-12-07T10:15:12;3.90;99.90
6110;DHT22;3085;49.444;11.054;2023-12-07T10:17:47;3.90;99.90
6110;DHT22;3085;49.444;11.054;2023-12-07T10:20:15;3.90;99.90
6110;DHT22;3085;49.444;11.054;2023-12-07T10:22:42;4.00;99.90
6110;DHT22;3085;49.444;11.054;2023-12-07T10:25:11;3.90;99.90
6110;DHT22;3085;49.444;11.054;2023-12-07T10:27:40;4.00;99.90
6110;DHT22;3085;49.444;11.054;2023-12-07T10:30:09;4.10;99.90
6110;DHT22;3085;49.444;11.054;2023-12-07T10:32:37;4.10;99.90
6110;DHT22;3085;49.444;11.054;2023-12-07T10:35:07;4.20;99.90
6110;DHT22;3085;49.444;11.054;2023-12-07T10:37:34;4.10;99.90
6110;DHT22;3085;49.444;11.054;2023-12-07T10:40:02;4.10;99.90
6110;DHT22;3085;49.444;11.054;2023-12-07T10:42:33;4.10;99.90
6110;DHT22;3085;49.444;11.054;2023-12-07T10:45:04;4.00;99.90
6110;DHT22;3085;49.444;11.054;2023-12-07T10:47:33;4.10;99.90
6110;DHT22;3085;49.444;11.054;2023-12-07T10:50:02;4.10;99.90
6110;DHT22;3085;49.444;11.054;2023-12-07T10:52:32;4.20;99.90
6110;DHT22;3085;49.444;11.054;2023-12-07T10:55:03;4.30;99.90
6110;DHT22;3085;49.444;11.054;2023-12-07T10:57:33;4.10;99.90
6110;DHT22;3085;49.444;11.054;2023-12-07T11:00:03;4.20;99.90
6110;DHT22;3085;49.444;11.054;2023-12-07T11:02:32;4.20;99.90
6110;DHT22;3085;49.444;11.054;2023-12-07T11:05:04;4.30;99.90
6110;DHT22;3085;49.444;11.054;2023-12-07T11:07:42;4.40;99.90
6110;DHT22;3085;49.444;11.054;2023-12-07T11:10:25;4.40;99.90
6110;DHT22;3085;49.444;11.054;2023-12-07T11:13:00;4.40;99.90
6110;DHT22;3085;49.444;11.054;2023-12-07T11:15:32;4.30;99.90
6110;DHT22;3085;49.444;11.054;2023-12-07T11:18:02;4.30;99.90
6110;DHT22;3085;49.444;11.054;2023-12-07T11:20:39;4.20;99.90
6110;DHT22;3085;49.444;11.054;2023-12-07T11:23:07;4.10;99.90
6110;DHT22;3085;49.444;11.054;2023-12-07T11:25:34;4.20;99.90
6110;DHT22;3085;49.444;11.054;2023-12-07T11:28:03;4.30;99.90
6110;DHT22;3085;49.444;11.054;2023-12-07T11:30:31;4.50;99.90
6110;DHT22;3085;49.444;11.054;2023-12-07T11:32:59;4.50;99.90
6110;DHT22;3085;49.444;11.054;2023-12-07T11:35:26;4.50;99.90
6110;DHT22;3085;49.444;11.054;2023-12-07T11:38:11;4.60;99.90
6110;DHT22;3085;49.444;11.054;2023-12-07T11:40:45;4.60;99.90
6110;DHT22;3085;49.444;11.054;2023-12-07T11:43:18;4.50;99.90
6110;DHT22;3085;49.444;11.054;2023-12-07T11:45:57;4.60;99.90
6110;DHT22;3085;49.444;11.054;2023-12-07T11:48:24;4.60;99.90
6110;DHT22;3085;49.444;11.054;2023-12-07T11:50:55;4.80;99.90
6110;DHT22;3085;49.444;11.054;2023-12-07T11:53:22;4.70;99.90
6110;DHT22;3085;49.444;11.054;2023-12-07T11:55:58;4.60;99.90
6110;DHT22;3085;49.444;11.054;2023-12-07T11:58:28;4.50;99.90
6110;DHT22;3085;49.444;11.054;2023-12-07T12:00:56;4.50;99.90
6110;DHT22;3085;49.444;11.054;2023-12-07T12:03:31;4.30;99.90
6110;DHT22;3085;49.444;11.054;2023-12-07T12:06:04;4.30;99.90
6110;DHT22;3085;49.444;11.054;2023-12-07T12:08:33;4.30;99.90
6110;DHT22;3085;49.444;11.054;2023-12-07T12:11:00;4.30;99.90
6110;DHT22;3085;49.444;11.054;2023-12-07T12:13:34;4.40;99.90
6110;DHT22;3085;49.444;11.054;2023-12-07T12:16:02;4.30;99.90
6110;DHT22;3085;49.444;11.054;2023-12-07T12:18:29;4.40;99.90
6110;DHT22;3085;49.444;11.054;2023-12-07T12:20:56;4.40;99.90
6110;DHT22;3085;49.444;11.054;2023-12-07T12:23:24;4.40;99.90
6110;DHT22;3085;49.444;11.054;2023-12-07T12:25:51;4.30;99.90
6110;DHT22;3085;49.444;11.054;2023-12-07T12:28:19;4.30;99.90
6110;DHT22;3085;49.444;11.054;2023-12-07T12:30:54;4.30;99.90
6110;DHT22;3085;49.444;11.054;2023-12-07T12:33:21;4.10;99.90
6110;DHT22;3085;49.444;11.054;2023-12-07T12:36:01;4.20;99.90
6110;DHT22;3085;49.444;11.054;2023-12-07T12:38:28;4.30;99.90
6110;DHT22;3085;49.444;11.054;2023-12-07T12:40:55;4.40;99.90
6110;DHT22;3085;49.444;11.054;2023-12-07T12:43:22;4.50;99.90
6110;DHT22;3085;49.444;11.054;2023-12-07T12:45:51;4.60;99.90
6110;DHT22;3085;49.444;11.054;2023-12-07T12:48:19;4.60;99.90
6110;DHT22;3085;49.444;11.054;2023-12-07T12:50:46;4.70;99.90
6110;DHT22;3085;49.444;11.054;2023-12-07T12:53:14;4.70;99.90
6110;DHT22;3085;49.444;11.054;2023-12-07T12:55:42;4.60;99.90
6110;DHT22;3085;49.444;11.054;2023-12-07T12:58:09;4.60;99.90
6110;DHT22;3085;49.444;11.054;2023-12-07T13:00:38;4.50;99.90
6110;DHT22;3085;49.444;11.054;2023-12-07T13:03:06;4.60;99.90
6110;DHT22;3085;49.444;11.054;2023-12-07T13:05:33;5.10;99.90
6110;DHT22;3085;49.444;11.054;2023-12-07T13:08:02;4.60;99.90
6110;DHT22;3085;49.444;11.054;2023-12-07T13:10:28;4.40;99.90
6110;DHT22;3085;49.444;11.054;2023-12-07T13:12:56;4.50;99.90
6110;DHT22;3085;49.444;11.054;2023-12-07T13:15:23;4.40;99.90
6110;DHT22;3085;49.444;11.054;2023-12-07T13:17:51;4.30;99.90
6110;DHT22;3085;49.444;11.054;2023-12-07T13:20:19;4.40;99.90
6110;DHT22;3085;49.444;11.054;2023-12-07T13:22:46;4.50;99.90
6110;DHT22;3085;49.444;11.054;2023-12-07T13:25:13;4.60;99.90
6110;DHT22;3085;49.444;11.054;2023-12-07T13:27:40;4.60;99.90
6110;DHT22;3085;49.444;11.054;2023-12-07T13:30:09;4.60;99.90
6110;DHT22;3085;49.444;11.054;2023-12-07T13:32:36;4.50;99.90
6110;DHT22;3085;49.444;11.054;2023-12-07T13:35:04;4.50;99.90
6110;DHT22;3085;49.444;11.054;2023-12-07T13:37:32;4.50;99.90
6110;DHT22;3085;49.444;11.054;2023-12-07T13:39:59;4.60;99.90
6110;DHT22;3085;49.444;11.054;2023-12-07T13:42:30;4.40;99.90
6110;DHT22;3085;49.444;11.054;2023-12-07T13:44:58;4.50;99.90
6110;DHT22;3085;49.444;11.054;2023-12-07T13:47:26;4.50;99.90
6110;DHT22;3085;49.444;11.054;2023-12-07T13:49:57;4.60;99.90
6110;DHT22;3085;49.444;11.054;2023-12-07T13:52:24;4.50;99.90
6110;DHT22;3085;49.444;11.054;2023-12-07T13:54:52;4.60;99.90
6110;DHT22;3085;49.444;11.054;2023-12-07T13:57:19;5.20;99.90
6110;DHT22;3085;49.444;11.054;2023-12-07T13:59:46;4.80;99.90
6110;DHT22;3085;49.444;11.054;2023-12-07T14:02:12;4.70;99.90
6110;DHT22;3085;49.444;11.054;2023-12-07T14:04:40;4.70;99.90
6110;DHT22;3085;49.444;11.054;2023-12-07T14:07:08;4.80;99.90
6110;DHT22;3085;49.444;11.054;2023-12-07T14:09:36;4.80;99.90
6110;DHT22;3085;49.444;11.054;2023-12-07T14:12:04;4.60;99.90
6110;DHT22;3085;49.444;11.054;2023-12-07T14:14:33;4.50;99.90
6110;DHT22;3085;49.444;11.054;2023-12-07T14:17:00;4.60;99.90
6110;DHT22;3085;49.444;11.054;2023-12-07T14:19:26;4.60;99.90
6110;DHT22;3085;49.444;11.054;2023-12-07T14:21:54;4.50;99.90
6110;DHT22;3085;49.444;11.054;2023-12-07T14:24:22;4.40;99.90
6110;DHT22;3085;49.444;11.054;2023-12-07T14:26:49;4.40;99.90
6110;DHT22;3085;49.444;11.054;2023-12-07T14:29:17;4.50;99.90
6110;DHT22;3085;49.444;11.054;2023-12-07T14:31:47;4.40;99.90
6110;DHT22;3085;49.444;11.054;2023-12-07T14:34:14;4.30;99.90
6110;DHT22;3085;49.444;11.054;2023-12-07T14:36:41;4.30;99.90
6110;DHT22;3085;49.444;11.054;2023-12-07T14:39:09;4.40;99.90
6110;DHT22;3085;49.444;11.054;2023-12-07T14:41:40;4.30;99.90
6110;DHT22;3085;49.444;11.054;2023-12-07T14:44:07;4.20;99.90
6110;DHT22;3085;49.444;11.054;2023-12-07T14:46:36;4.10;99.90
6110;DHT22;3085;49.444;11.054;2023-12-07T14:49:02;4.10;99.90
6110;DHT22;3085;49.444;11.054;2023-12-07T14:51:29;4.30;99.90
6110;DHT22;3085;49.444;11.054;2023-12-07T14:53:56;4.10;99.90
6110;DHT22;3085;49.444;11.054;2023-12-07T14:56:23;4.20;99.90
6110;DHT22;3085;49.444;11.054;2023-12-07T14:58:50;4.00;99.90
6110;DHT22;3085;49.444;11.054;2023-12-07T15:01:17;4.00;99.90
6110;DHT22;3085;49.444;11.054;2023-12-07T15:03:46;4.10;99.90
6110;DHT22;3085;49.444;11.054;2023-12-07T15:06:12;4.10;99.90
6110;DHT22;3085;49.444;11.054;2023-12-07T15:08:40;4.10;99.90
6110;DHT22;3085;49.444;11.054;2023-12-07T15:11:07;4.10;99.90
6110;DHT22;3085;49.444;11.054;2023-12-07T15:13:35;3.90;99.90
6110;DHT22;3085;49.444;11.054;2023-12-07T15:16:02;4.00;99.90
6110;DHT22;3085;49.444;11.054;2023-12-07T15:18:31;3.80;99.90
6110;DHT22;3085;49.444;11.054;2023-12-07T15:21:02;3.90;99.90
6110;DHT22;3085;49.444;11.054;2023-12-07T15:23:29;3.90;99.90
6110;DHT22;3085;49.444;11.054;2023-12-07T15:25:56;3.90;99.90
6110;DHT22;3085;49.444;11.054;2023-12-07T15:28:23;3.90;99.90
6110;DHT22;3085;49.444;11.054;2023-12-07T15:30:52;3.80;99.90
6110;DHT22;3085;49.444;11.054;2023-12-07T15:33:19;3.70;99.90
6110;DHT22;3085;49.444;11.054;2023-12-07T15:35:46;3.80;99.90
6110;DHT22;3085;49.444;11.054;2023-12-07T15:38:14;3.70;99.90
6110;DHT22;3085;49.444;11.054;2023-12-07T15:40:41;3.60;99.90
6110;DHT22;3085;49.444;11.054;2023-12-07T15:43:08;3.60;99.90
6110;DHT22;3085;49.444;11.054;2023-12-07T15:45:35;3.60;99.90
6110;DHT22;3085;49.444;11.054;2023-12-07T15:48:02;3.40;99.90
6110;DHT22;3085;49.444;11.054;2023-12-07T15:50:30;3.50;99.90
6110;DHT22;3085;49.444;11.054;2023-12-07T15:52:58;3.50;99.90
6110;DHT22;3085;49.444;11.054;2023-12-07T15:55:26;3.50;99.90
6110;DHT22;3085;49.444;11.054;2023-12-07T15:57:53;3.40;99.90
6110;DHT22;3085;49.444;11.054;2023-12-07T16:00:20;3.40;99.90
6110;DHT22;3085;49.444;11.054;2023-12-07T16:02:48;3.50;99.90
6110;DHT22;3085;49.444;11.054;2023-12-07T16:05:14;3.60;99.90
6110;DHT22;3085;49.444;11.054;2023-12-07T16:07:41;3.50;99.90